createdAt,value
2022-08-01T00:00:54.871Z,9.60
2022-08-01T00:03:22.654Z,4.80
2022-08-01T00:05:50.612Z,4.40
2022-08-01T00:08:18.348Z,8.00
2022-08-01T00:10:46.099Z,5.40
2022-08-01T00:13:13.869Z,3.60
2022-08-01T00:15:41.805Z,4.80
2022-08-01T00:18:22.010Z,9.20
2022-08-01T00:20:49.862Z,6.20
2022-08-01T00:23:17.682Z,5.20
2022-08-01T00:25:45.398Z,6.40
2022-08-01T00:28:14.606Z,6.90
2022-08-01T00:30:42.432Z,6.40
2022-08-01T00:33:10.287Z,3.20
2022-08-01T00:35:38.027Z,6.60
2022-08-01T00:38:05.756Z,4.40
2022-08-01T00:40:33.467Z,7.10
2022-08-01T00:43:01.996Z,6.00
2022-08-01T00:45:30.200Z,7.60
2022-08-01T00:47:58.148Z,5.70
2022-08-01T00:50:27.191Z,5.00
2022-08-01T00:52:57.485Z,7.10
2022-08-01T00:55:26.450Z,9.80
2022-08-01T00:58:03.013Z,11.20
2022-08-01T01:03:55.971Z,6.60
2022-08-01T01:06:24.367Z,5.80
2022-08-01T01:09:13.895Z,3.50
2022-08-01T01:12:07.603Z,5.50
2022-08-01T01:14:48.002Z,6.50
2022-08-01T01:17:40.657Z,6.40
2022-08-01T01:20:14.537Z,10.30
2022-08-01T01:22:49.451Z,8.90
2022-08-01T01:25:35.970Z,3.70
2022-08-01T01:28:22.429Z,5.20
2022-08-01T01:30:52.550Z,5.60
2022-08-01T01:33:22.407Z,4.10
2022-08-01T01:35:54.078Z,3.90
2022-08-01T01:38:25.369Z,6.90
2022-08-01T01:40:53.875Z,3.10
2022-08-01T01:43:28.654Z,5.70
2022-08-01T01:46:02.910Z,5.90
2022-08-01T01:48:32.113Z,3.90
2022-08-01T01:51:00.321Z,4.20
2022-08-01T01:53:29.649Z,8.80
2022-08-01T01:55:58.983Z,7.50
2022-08-01T01:58:27.560Z,6.60
2022-08-01T02:00:56.818Z,10.70
2022-08-01T02:03:27.726Z,4.30
2022-08-01T02:05:56.374Z,3.80
2022-08-01T02:08:24.779Z,7.90
2022-08-01T02:11:13.465Z,5.30
2022-08-01T02:13:41.663Z,4.90
2022-08-01T02:16:12.183Z,5.90
2022-08-01T02:18:39.908Z,5.70
2022-08-01T02:21:12.864Z,3.50
2022-08-01T02:23:42.076Z,7.30
2022-08-01T02:26:12.048Z,9.40
2022-08-01T02:28:47.068Z,4.60
2022-08-01T02:31:18.691Z,7.50
2022-08-01T02:33:52.456Z,6.90
2022-08-01T02:36:29.787Z,5.10
2022-08-01T02:39:14.384Z,4.60
2022-08-01T02:41:44.605Z,10.20
2022-08-01T02:44:19.234Z,7.30
2022-08-01T02:46:54.967Z,5.10
2022-08-01T02:49:24.278Z,7.50
2022-08-01T02:51:53.947Z,11.70
2022-08-01T02:54:22.727Z,8.50
2022-08-01T02:56:51.314Z,5.60
2022-08-01T02:59:22.347Z,6.80
2022-08-01T03:01:51.385Z,3.80
2022-08-01T03:04:19.981Z,6.10
2022-08-01T03:06:48.555Z,5.50
2022-08-01T03:09:17.088Z,5.90
2022-08-01T03:11:47.015Z,8.20
2022-08-01T03:14:15.797Z,8.20
2022-08-01T03:16:45.822Z,6.60
2022-08-01T03:19:14.897Z,4.70
2022-08-01T03:21:44.475Z,8.90
2022-08-01T03:26:41.106Z,4.30
2022-08-01T03:29:20.791Z,5.80
2022-08-01T03:31:49.320Z,7.10
2022-08-01T03:34:17.708Z,5.40
2022-08-01T03:36:51.480Z,6.00
2022-08-01T03:39:20.372Z,7.90
2022-08-01T03:41:56.803Z,7.80
2022-08-01T03:44:28.167Z,5.30
2022-08-01T03:47:01.157Z,6.70
2022-08-01T03:49:34.162Z,5.00
2022-08-01T03:52:04.054Z,5.50
2022-08-01T03:54:35.243Z,10.80
2022-08-01T03:57:03.560Z,12.00
2022-08-01T03:59:31.899Z,13.50
2022-08-01T04:02:00.146Z,9.40
2022-08-01T04:04:29.736Z,4.50
2022-08-01T04:09:25.269Z,5.10
2022-08-01T04:11:53.866Z,4.70
2022-08-01T04:14:22.251Z,7.00
2022-08-01T04:16:50.063Z,9.40
2022-08-01T04:19:17.767Z,5.80
2022-08-01T04:21:45.697Z,9.40
2022-08-01T04:24:16.306Z,9.80
2022-08-01T04:26:45.834Z,11.40
2022-08-01T04:29:15.249Z,8.00
2022-08-01T04:31:45.433Z,7.70
2022-08-01T04:34:15.639Z,6.10
2022-08-01T04:36:43.907Z,4.60
2022-08-01T04:39:12.113Z,8.20
2022-08-01T04:41:41.133Z,9.20
2022-08-01T04:44:09.243Z,5.40
2022-08-01T04:46:37.971Z,6.10
2022-08-01T04:49:08.088Z,7.10
2022-08-01T04:51:36.446Z,6.50
2022-08-01T04:54:05.009Z,7.00
2022-08-01T04:56:35.179Z,6.70
2022-08-01T04:59:21.732Z,8.30
2022-08-01T05:01:51.278Z,8.40
2022-08-01T05:04:19.612Z,11.70
2022-08-01T05:06:47.394Z,8.00
2022-08-01T05:09:15.408Z,8.60
2022-08-01T05:11:44.229Z,10.20
2022-08-01T05:14:11.934Z,10.20
2022-08-01T05:16:39.583Z,11.10
2022-08-01T05:19:09.191Z,9.00
2022-08-01T05:21:38.325Z,8.00
2022-08-01T05:24:06.571Z,10.60
2022-08-01T05:26:34.359Z,10.70
2022-08-01T05:29:04.328Z,7.70
2022-08-01T05:31:35.229Z,8.50
2022-08-01T05:34:03.856Z,7.30
2022-08-01T05:36:31.608Z,8.10
2022-08-01T05:38:59.394Z,8.70
2022-08-01T05:41:27.656Z,8.60
2022-08-01T05:43:55.556Z,9.30
2022-08-01T05:46:23.529Z,11.90
2022-08-01T05:48:54.291Z,7.60
2022-08-01T05:51:22.213Z,8.60
2022-08-01T05:53:50.389Z,7.50
2022-08-01T05:56:19.018Z,8.60
2022-08-01T05:58:46.706Z,11.30
2022-08-01T06:01:14.553Z,10.10
2022-08-01T06:03:42.256Z,7.90
2022-08-01T06:06:10.060Z,6.50
2022-08-01T06:08:37.891Z,7.50
2022-08-01T06:11:06.417Z,6.40
2022-08-01T06:13:34.342Z,6.20
2022-08-01T06:16:17.276Z,9.50
2022-08-01T06:18:45.052Z,8.20
2022-08-01T06:21:12.720Z,5.40
2022-08-01T06:23:42.523Z,4.50
2022-08-01T06:26:11.207Z,4.40
2022-08-01T06:28:39.712Z,4.50
2022-08-01T06:31:07.610Z,4.10
2022-08-01T06:33:35.500Z,6.10
2022-08-01T06:36:03.899Z,8.20
2022-08-01T06:38:31.643Z,5.00
2022-08-01T06:40:59.385Z,3.60
2022-08-01T06:43:27.351Z,7.20
2022-08-01T06:45:55.518Z,3.50
2022-08-01T06:48:24.002Z,7.20
2022-08-01T06:51:09.122Z,6.00
2022-08-01T06:53:38.309Z,4.20
2022-08-01T06:56:07.210Z,5.70
2022-08-01T06:58:35.877Z,3.50
2022-08-01T07:01:08.036Z,3.60
2022-08-01T07:03:53.181Z,2.80
2022-08-01T07:06:23.729Z,3.50
2022-08-01T07:08:52.509Z,3.70
2022-08-01T07:11:20.977Z,4.50
2022-08-01T07:13:49.657Z,6.40
2022-08-01T07:16:18.347Z,4.40
2022-08-01T07:18:46.122Z,3.20
2022-08-01T07:21:39.340Z,3.00
2022-08-01T07:24:01.667Z,4.10
2022-08-01T07:26:29.527Z,3.20
2022-08-01T07:28:57.351Z,3.20
2022-08-01T07:31:28.352Z,5.80
2022-08-01T07:33:58.293Z,2.60
2022-08-01T07:36:26.069Z,3.60
2022-08-01T07:38:53.921Z,8.00
2022-08-01T07:41:21.713Z,4.10
2022-08-01T07:44:09.428Z,4.40
2022-08-01T07:46:37.694Z,4.50
2022-08-01T07:49:05.472Z,2.20
2022-08-01T07:51:33.270Z,3.40
2022-08-01T07:54:01.045Z,3.90
2022-08-01T07:56:29.434Z,3.60
2022-08-01T07:58:57.172Z,3.50
2022-08-01T08:01:24.972Z,3.40
2022-08-01T08:03:52.719Z,2.30
2022-08-01T08:06:20.767Z,4.90
2022-08-01T08:08:48.886Z,6.70
2022-08-01T08:11:16.778Z,2.90
2022-08-01T08:13:44.726Z,2.40
2022-08-01T08:16:12.446Z,4.70
2022-08-01T08:18:40.320Z,2.60
2022-08-01T08:21:08.844Z,3.10
2022-08-01T08:23:55.485Z,3.00
2022-08-01T08:26:24.758Z,3.70
2022-08-01T08:28:52.538Z,2.50
2022-08-01T08:31:24.965Z,2.20
2022-08-01T08:33:53.489Z,13.30
2022-08-01T08:36:21.569Z,2.80
2022-08-01T08:38:49.246Z,4.20
2022-08-01T08:41:21.130Z,5.10
2022-08-01T08:43:49.647Z,2.20
2022-08-01T08:46:17.937Z,2.60
2022-08-01T08:48:57.347Z,4.00
2022-08-01T08:51:31.682Z,3.10
2022-08-01T08:53:59.960Z,3.10
2022-08-01T08:56:30.795Z,7.30
2022-08-01T08:58:58.611Z,1.80
2022-08-01T09:01:26.726Z,2.20
2022-08-01T09:03:55.089Z,1.90
2022-08-01T09:06:23.208Z,5.40
2022-08-01T09:08:51.317Z,4.20
2022-08-01T09:11:22.688Z,1.70
2022-08-01T09:14:03.190Z,2.00
2022-08-01T09:16:32.577Z,2.10
2022-08-01T09:19:16.145Z,2.90
2022-08-01T09:22:00.488Z,2.20
2022-08-01T09:24:32.460Z,3.20
2022-08-01T09:27:03.447Z,1.90
2022-08-01T09:29:38.164Z,6.60
2022-08-01T09:32:08.008Z,5.00
2022-08-01T09:34:36.181Z,4.40
2022-08-01T09:37:07.744Z,6.80
2022-08-01T09:39:38.689Z,3.70
2022-08-01T09:42:29.163Z,4.30
2022-08-01T09:44:57.016Z,6.10
2022-08-01T09:47:38.778Z,8.60
2022-08-01T09:50:11.171Z,11.30
2022-08-01T09:52:41.157Z,16.90
2022-08-01T09:55:10.250Z,24.50
2022-08-01T09:57:39.055Z,33.60
2022-08-01T10:00:35.739Z,44.70
2022-08-01T10:03:26.917Z,58.60
2022-08-01T10:05:54.903Z,72.70
2022-08-01T10:08:24.334Z,83.00
2022-08-01T10:11:36.465Z,91.40
2022-08-01T10:14:05.508Z,107.80
2022-08-01T10:16:35.776Z,119.80
2022-08-01T10:19:11.362Z,118.50
2022-08-01T10:21:56.655Z,112.40
2022-08-01T10:24:29.409Z,116.80
2022-08-01T10:27:06.065Z,102.70
2022-08-01T10:29:59.029Z,75.20
2022-08-01T10:32:29.955Z,72.40
2022-08-01T10:34:58.394Z,70.70
2022-08-01T10:37:26.989Z,58.20
2022-08-01T10:40:13.968Z,55.60
2022-08-01T10:42:45.335Z,48.20
2022-08-01T10:45:15.836Z,47.10
2022-08-01T10:48:04.367Z,47.70
2022-08-01T10:50:44.284Z,50.80
2022-08-01T10:53:24.331Z,55.20
2022-08-01T10:58:42.625Z,59.00
2022-08-01T11:01:23.941Z,60.60
2022-08-01T11:04:03.089Z,60.70
2022-08-01T11:06:34.991Z,61.90
2022-08-01T11:09:16.876Z,64.80
2022-08-01T11:12:06.129Z,53.60
2022-08-01T11:14:54.005Z,41.20
2022-08-01T11:17:37.698Z,29.80
2022-08-01T11:20:09.976Z,18.50
2022-08-01T11:22:59.765Z,10.80
2022-08-01T11:26:03.600Z,6.60
2022-08-01T11:28:28.463Z,4.00
2022-08-01T11:31:00.209Z,3.00
2022-08-01T11:33:45.450Z,2.10
2022-08-01T11:39:13.843Z,1.10
2022-08-01T11:41:44.951Z,0.90
2022-08-01T11:44:14.656Z,0.70
2022-08-01T11:47:09.366Z,0.50
2022-08-01T11:49:38.960Z,0.30
2022-08-01T11:52:15.320Z,0.30
2022-08-01T11:54:52.579Z,0.20
2022-08-01T11:57:34.637Z,0.20
2022-08-01T12:00:15.072Z,0.20
2022-08-01T12:02:45.621Z,0.10
2022-08-01T12:05:17.400Z,0.10
2022-08-01T12:07:46.922Z,0.10
2022-08-01T12:10:16.965Z,0.00
2022-08-01T12:12:47.646Z,0.10
2022-08-01T12:15:16.498Z,0.00
2022-08-01T12:17:59.918Z,0.00
2022-08-01T12:20:33.937Z,0.40
2022-08-01T12:23:04.050Z,0.00
2022-08-01T12:25:31.799Z,0.00
2022-08-01T12:28:04.686Z,0.10
2022-08-01T12:30:36.252Z,0.40
2022-08-01T12:33:07.442Z,0.10
2022-08-01T12:35:37.639Z,0.20
2022-08-01T12:38:15.756Z,0.10
2022-08-01T12:40:46.000Z,0.10
2022-08-01T12:43:27.433Z,1.10
2022-08-01T12:45:59.770Z,0.40
2022-08-01T12:48:29.056Z,0.60
2022-08-01T12:51:01.333Z,0.60
2022-08-01T12:53:40.949Z,1.60
2022-08-01T12:56:13.819Z,1.90
2022-08-01T12:58:41.776Z,1.60
2022-08-01T13:01:11.939Z,4.20
2022-08-01T13:03:40.771Z,2.80
2022-08-01T13:06:13.596Z,1.80
2022-08-01T13:08:41.763Z,10.20
2022-08-01T13:11:17.293Z,3.50
2022-08-01T13:13:51.000Z,2.10
2022-08-01T13:16:30.908Z,2.20
2022-08-01T13:19:08.001Z,4.50
2022-08-01T13:21:53.923Z,2.90
2022-08-01T13:24:30.383Z,2.80
2022-08-01T13:27:04.951Z,2.00
2022-08-01T13:29:39.188Z,2.40
2022-08-01T13:32:27.681Z,3.10
2022-08-01T13:35:06.598Z,3.10
2022-08-01T13:37:34.923Z,3.90
2022-08-01T13:40:05.320Z,1.80
2022-08-01T13:42:33.322Z,1.70
2022-08-01T13:45:01.401Z,2.40
2022-08-01T13:47:33.447Z,2.30
2022-08-01T13:50:03.747Z,2.60
2022-08-01T13:52:32.354Z,5.30
2022-08-01T13:55:00.689Z,3.80
2022-08-01T13:57:36.776Z,1.60
2022-08-01T14:00:07.187Z,1.90
2022-08-01T14:02:40.225Z,3.90
2022-08-01T14:05:08.090Z,3.30
2022-08-01T14:07:35.912Z,2.80
2022-08-01T14:10:19.531Z,1.60
2022-08-01T14:12:49.067Z,3.60
2022-08-01T14:15:37.046Z,1.80
2022-08-01T14:18:06.764Z,1.60
2022-08-01T14:20:35.634Z,4.00
2022-08-01T14:23:03.668Z,1.80
2022-08-01T14:26:02.595Z,4.50
2022-08-01T14:28:22.088Z,2.60
2022-08-01T14:30:50.247Z,3.20
2022-08-01T14:33:18.033Z,4.10
2022-08-01T14:36:01.814Z,3.40
2022-08-01T14:38:34.448Z,6.90
2022-08-01T14:41:04.579Z,3.50
2022-08-01T14:43:35.284Z,2.60
2022-08-01T14:46:04.768Z,2.50
2022-08-01T14:48:33.915Z,2.30
2022-08-01T14:51:03.824Z,4.00
2022-08-01T14:53:34.348Z,3.90
2022-08-01T14:56:04.805Z,2.30
2022-08-01T14:58:32.972Z,2.70
2022-08-01T15:01:01.664Z,2.70
2022-08-01T15:03:30.245Z,1.70
2022-08-01T15:05:57.921Z,3.50
2022-08-01T15:08:25.620Z,4.90
2022-08-01T15:10:53.615Z,2.50
2022-08-01T15:13:21.790Z,2.70
2022-08-01T15:15:50.365Z,3.00
2022-08-01T15:18:18.132Z,3.90
2022-08-01T15:20:46.389Z,6.10
2022-08-01T15:23:14.776Z,4.20
2022-08-01T15:25:42.689Z,5.80
2022-08-01T15:28:10.991Z,3.70
2022-08-01T15:30:39.675Z,1.80
2022-08-01T15:33:08.005Z,1.80
2022-08-01T15:35:35.763Z,5.50
2022-08-01T15:38:03.811Z,4.40
2022-08-01T15:40:35.567Z,13.70
2022-08-01T15:43:04.016Z,5.40
2022-08-01T15:45:48.431Z,4.20
2022-08-01T15:48:18.008Z,4.30
2022-08-01T15:50:45.981Z,2.30
2022-08-01T15:53:13.761Z,10.40
2022-08-01T15:55:48.900Z,6.80
2022-08-01T15:58:20.626Z,4.10
2022-08-01T16:00:48.392Z,10.90
2022-08-01T16:03:16.253Z,3.40
2022-08-01T16:05:44.502Z,6.90
2022-08-01T16:08:13.217Z,4.40
2022-08-01T16:10:41.387Z,2.90
2022-08-01T16:13:09.629Z,4.00
2022-08-01T16:15:38.282Z,3.40
2022-08-01T16:18:08.242Z,8.10
2022-08-01T16:20:40.168Z,4.10
2022-08-01T16:23:13.706Z,2.50
2022-08-01T16:25:41.589Z,4.90
2022-08-01T16:28:09.977Z,3.00
2022-08-01T16:31:00.079Z,2.90
2022-08-01T16:33:45.624Z,2.90
2022-08-01T16:36:17.075Z,5.40
2022-08-01T16:38:45.754Z,2.30
2022-08-01T16:41:19.403Z,3.20
2022-08-01T16:43:53.953Z,3.50
2022-08-01T16:46:25.218Z,4.40
2022-08-01T16:48:54.079Z,6.40
2022-08-01T16:51:21.905Z,4.60
2022-08-01T16:53:49.815Z,3.30
2022-08-01T16:56:17.895Z,4.00
2022-08-01T16:58:46.017Z,4.10
2022-08-01T17:02:00.104Z,6.80
2022-08-01T17:04:02.392Z,4.20
2022-08-01T17:06:30.397Z,3.60
2022-08-01T17:08:58.528Z,8.10
2022-08-01T17:11:27.010Z,5.40
2022-08-01T17:13:54.812Z,5.60
2022-08-01T17:16:23.432Z,6.30
2022-08-01T17:18:51.163Z,5.50
2022-08-01T17:21:19.354Z,5.10
2022-08-01T17:23:47.204Z,6.80
2022-08-01T17:26:15.121Z,3.00
2022-08-01T17:28:43.764Z,5.30
2022-08-01T17:31:11.540Z,4.70
2022-08-01T17:33:44.429Z,6.40
2022-08-01T17:36:12.983Z,6.00
2022-08-01T17:38:40.896Z,7.10
2022-08-01T17:41:08.743Z,4.70
2022-08-01T17:43:36.465Z,11.10
2022-08-01T17:46:04.348Z,4.90
2022-08-01T17:48:32.792Z,5.70
2022-08-01T17:51:00.740Z,9.20
2022-08-01T17:53:28.766Z,5.40
2022-08-01T17:55:59.001Z,4.60
2022-08-01T17:58:50.567Z,6.50
2022-08-01T18:01:17.397Z,18.50
2022-08-01T18:03:46.559Z,8.60
2022-08-01T18:06:17.409Z,5.30
2022-08-01T18:08:47.536Z,4.80
2022-08-01T18:11:16.926Z,5.20
2022-08-01T18:13:45.241Z,4.10
2022-08-01T18:16:13.594Z,3.50
2022-08-01T18:18:43.958Z,4.30
2022-08-01T18:21:12.277Z,5.20
2022-08-01T18:23:40.516Z,5.10
2022-08-01T18:26:20.632Z,4.60
2022-08-01T18:28:48.490Z,3.60
2022-08-01T18:31:17.886Z,5.50
2022-08-01T18:33:46.775Z,5.20
2022-08-01T18:36:32.455Z,5.20
2022-08-01T18:39:06.288Z,4.40
2022-08-01T18:41:37.924Z,5.30
2022-08-01T18:44:08.258Z,7.00
2022-08-01T18:46:38.236Z,9.90
2022-08-01T18:49:10.543Z,8.60
2022-08-01T18:51:44.326Z,6.90
2022-08-01T18:54:14.409Z,3.50
2022-08-01T18:59:11.958Z,5.10
2022-08-01T19:01:40.221Z,3.90
2022-08-01T19:04:09.047Z,6.00
2022-08-01T19:06:37.905Z,4.40
2022-08-01T19:09:06.723Z,5.30
2022-08-01T19:11:34.949Z,4.00
2022-08-01T19:14:03.320Z,3.40
2022-08-01T19:16:31.620Z,8.40
2022-08-01T19:19:04.494Z,10.70
2022-08-01T19:21:33.079Z,3.40
2022-08-01T19:24:23.179Z,5.50
2022-08-01T19:26:56.659Z,4.60
2022-08-01T19:29:35.415Z,4.20
2022-08-01T19:32:06.454Z,7.60
2022-08-01T19:34:50.119Z,4.10
2022-08-01T19:37:18.105Z,5.70
2022-08-01T19:39:46.197Z,5.10
2022-08-01T19:42:14.080Z,5.00
2022-08-01T19:44:43.030Z,5.70
2022-08-01T19:47:13.013Z,3.10
2022-08-01T19:49:40.864Z,5.60
2022-08-01T19:52:09.802Z,5.30
2022-08-01T19:54:38.686Z,4.80
2022-08-01T19:57:08.027Z,4.80
2022-08-01T19:59:36.924Z,6.40
2022-08-01T20:02:05.711Z,4.10
2022-08-01T20:04:34.923Z,6.70
2022-08-01T20:07:03.663Z,5.50
2022-08-01T20:09:33.482Z,3.60
2022-08-01T20:12:01.403Z,3.30
2022-08-01T20:14:29.234Z,3.50
2022-08-01T20:16:57.177Z,3.40
2022-08-01T20:19:26.067Z,3.30
2022-08-01T20:22:04.514Z,3.90
2022-08-01T20:24:45.998Z,4.30
2022-08-01T20:27:15.647Z,3.40
2022-08-01T20:29:44.945Z,3.70
2022-08-01T20:32:13.182Z,3.60
2022-08-01T20:34:41.441Z,4.40
2022-08-01T20:37:13.264Z,4.40
2022-08-01T20:39:44.251Z,3.80
2022-08-01T20:42:14.161Z,5.10
2022-08-01T20:44:42.848Z,5.40
2022-08-01T20:47:11.117Z,5.60
2022-08-01T20:49:40.918Z,5.30
2022-08-01T20:52:11.799Z,4.00
2022-08-01T20:54:43.711Z,5.00
2022-08-01T20:57:26.244Z,4.60
2022-08-01T21:00:05.313Z,4.80
2022-08-01T21:03:02.710Z,3.50
2022-08-01T21:05:31.816Z,4.30
2022-08-01T21:08:14.207Z,5.00
2022-08-01T21:10:44.250Z,4.70
2022-08-01T21:13:21.347Z,5.10
2022-08-01T21:16:11.781Z,4.00
2022-08-01T21:21:55.428Z,4.10
2022-08-01T21:24:23.783Z,3.90
2022-08-01T21:26:53.544Z,3.90
2022-08-01T21:29:23.063Z,5.50
2022-08-01T21:32:11.687Z,4.30
2022-08-01T21:34:40.127Z,8.10
2022-08-01T21:37:09.303Z,5.10
2022-08-01T21:39:38.222Z,3.70
2022-08-01T21:42:09.234Z,10.20
2022-08-01T21:44:44.095Z,5.30
2022-08-01T21:47:12.479Z,3.80
2022-08-01T21:49:41.438Z,5.00
2022-08-01T21:52:15.352Z,6.20
2022-08-01T21:54:48.518Z,6.60
2022-08-01T21:57:23.620Z,6.70
2022-08-01T22:00:05.665Z,5.10
2022-08-01T22:02:37.974Z,4.20
2022-08-01T22:05:10.630Z,4.30
2022-08-01T22:07:45.905Z,3.60
2022-08-01T22:10:16.392Z,5.20
2022-08-01T22:12:45.306Z,5.30
2022-08-01T22:15:14.391Z,6.30
2022-08-01T22:17:42.384Z,6.50
2022-08-01T22:20:10.801Z,3.50
2022-08-01T22:22:51.219Z,6.70
2022-08-01T22:25:21.479Z,6.30
2022-08-01T22:28:05.844Z,4.10
2022-08-01T22:30:41.993Z,6.20
2022-08-01T22:33:17.154Z,4.10
2022-08-01T22:35:50.934Z,4.50
2022-08-01T22:38:20.833Z,5.80
2022-08-01T22:41:01.359Z,5.70
2022-08-01T22:43:56.738Z,4.50
2022-08-01T22:46:37.682Z,4.20
2022-08-01T22:49:31.130Z,3.90
2022-08-01T22:52:12.709Z,7.00
2022-08-01T22:54:44.567Z,5.00
2022-08-01T22:57:16.567Z,5.50
2022-08-01T23:00:01.945Z,5.90
2022-08-01T23:02:31.904Z,5.40
2022-08-01T23:05:08.084Z,4.70
2022-08-01T23:07:39.724Z,5.00
2022-08-01T23:10:08.693Z,5.50
2022-08-01T23:12:37.152Z,4.20
2022-08-01T23:15:05.683Z,3.60
2022-08-01T23:17:33.657Z,7.10
2022-08-01T23:20:03.947Z,4.60
2022-08-01T23:22:34.069Z,4.40
2022-08-01T23:25:06.475Z,4.10
2022-08-01T23:27:55.738Z,4.10
2022-08-01T23:30:35.063Z,5.10
2022-08-01T23:35:31.504Z,6.70
2022-08-01T23:38:03.390Z,6.40
2022-08-01T23:40:32.584Z,7.40
2022-08-01T23:46:02.840Z,4.50
2022-08-01T23:48:17.703Z,3.60
2022-08-01T23:50:45.721Z,5.10
2022-08-01T23:53:13.762Z,5.10
2022-08-01T23:55:44.072Z,5.10
2022-08-01T23:58:12.372Z,6.60
